Time;durP1;ratioP1;P1;durP2;ratioP2;P2;SDS_P1;SDS_P2;PMS_P1;PMS_P2;Temp;Humidity;BMP_temperature;BMP_pressure;BME280_temperature;BME280_humidity;BME280_pressure;Samples;Min_cycle;Max_cycle;Signal;HPM_P1;HPM_P2
2021/12/21 00:00:37;;;;;;;3.10;1.20;;;27.50;92.90;;;;;;5094510;28;20548;-74
2021/12/21 00:03:04;;;;;;;4.10;1.33;;;27.60;93.10;;;;;;5094439;28;20028;-73
2021/12/21 00:05:32;;;;;;;2.75;0.80;;;27.80;93.10;;;;;;5094385;28;20089;-70
2021/12/21 00:08:03;;;;;;;5.22;1.08;;;27.80;92.10;;;;;;5094399;28;20016;-74
2021/12/21 00:10:32;;;;;;;4.32;1.15;;;27.90;92.40;;;;;;5094391;28;20062;-69
2021/12/21 00:13:11;;;;;;;4.75;1.38;;;28.30;92.90;;;;;;5094358;28;20100;-74
2021/12/21 00:18:38;;;;;;;3.08;0.90;;;28.80;92.30;;;;;;5094036;28;20016;-73
2021/12/21 00:23:43;;;;;;;7.13;1.10;;;29.10;91.70;;;;;;5094535;28;20023;-70
2021/12/21 00:26:13;;;;;;;6.03;0.90;;;29.10;90.70;;;;;;5094080;28;20473;-75
2021/12/21 00:31:10;;;;;;;4.60;1.20;;;28.90;91.40;;;;;;5093733;28;20020;-70
2021/12/21 00:33:40;;;;;;;3.25;1.02;;;28.80;91.50;;;;;;5094383;28;20404;-70
2021/12/21 00:36:09;;;;;;;1.70;0.57;;;29.00;91.90;;;;;;5094063;28;20042;-71
2021/12/21 00:38:37;;;;;;;3.95;0.98;;;29.20;90.90;;;;;;5092610;28;20435;-70
2021/12/21 00:41:04;;;;;;;4.03;1.77;;;29.40;91.10;;;;;;5093713;28;20341;-69
2021/12/21 00:43:32;;;;;;;2.97;0.98;;;29.70;90.30;;;;;;5093644;28;20016;-75
2021/12/21 00:46:00;;;;;;;7.10;1.08;;;29.80;92.00;;;;;;5093545;28;20035;-72
2021/12/21 00:48:32;;;;;;;3.78;0.95;;;30.00;90.50;;;;;;5093751;28;20032;-73
2021/12/21 00:51:01;;;;;;;9.43;1.35;;;29.80;90.10;;;;;;5093500;28;20035;-71
2021/12/21 00:53:29;;;;;;;3.13;0.93;;;29.60;90.50;;;;;;5093689;28;20106;-70
2021/12/21 00:55:56;;;;;;;3.42;1.00;;;29.60;91.00;;;;;;5093732;28;20473;-72
2021/12/21 00:58:24;;;;;;;3.17;0.88;;;29.70;90.30;;;;;;5093613;28;20028;-71
2021/12/21 01:00:51;;;;;;;2.67;1.00;;;29.70;91.40;;;;;;5093441;28;20428;-70
2021/12/21 01:03:19;;;;;;;2.70;0.68;;;29.80;90.60;;;;;;5093078;28;20028;-70
2021/12/21 01:06:04;;;;;;;5.22;1.10;;;30.00;90.40;;;;;;5093297;28;20442;-70
2021/12/21 01:08:43;;;;;;;5.35;1.05;;;30.40;92.10;;;;;;5075425;28;20020;-70
2021/12/21 01:11:20;;;;;;;2.17;0.70;;;30.60;91.90;;;;;;5093542;28;20064;-75
2021/12/21 01:14:01;;;;;;;1.60;0.70;;;30.90;92.10;;;;;;5093363;28;20032;-70
2021/12/21 01:19:07;;;;;;;4.07;0.98;;;30.90;91.90;;;;;;5093157;28;20021;-70
2021/12/21 01:21:46;;;;;;;4.28;1.05;;;31.00;90.20;;;;;;5093217;28;20036;-71
2021/12/21 01:24:35;;;;;;;3.50;1.00;;;30.90;90.10;;;;;;5093393;28;20031;-75
2021/12/21 01:29:53;;;;;;;7.95;1.27;;;31.00;91.00;;;;;;5093323;28;20070;-74
2021/12/21 01:37:23;;;;;;;7.32;1.25;;;31.40;91.80;;;;;;5093114;28;20055;-76
2021/12/21 01:40:17;;;;;;;4.93;1.42;;;31.50;89.60;;;;;;5093308;28;20032;-74
2021/12/21 01:43:07;;;;;;;7.90;1.10;;;31.60;89.50;;;;;;5092953;28;20024;-70
2021/12/21 01:51:08;;;;;;;3.05;1.70;;;30.80;87.20;;;;;;5096919;28;20115;-76
2021/12/21 01:53:36;;;;;;;6.63;1.27;;;30.80;88.60;;;;;;5097093;28;20024;-75
2021/12/21 01:56:05;;;;;;;6.03;1.73;;;30.90;86.90;;;;;;5096855;28;20408;-72
2021/12/21 01:58:33;;;;;;;4.05;0.98;;;30.70;88.30;;;;;;5096927;28;20020;-74
2021/12/21 02:01:02;;;;;;;4.68;1.33;;;30.80;87.40;;;;;;5096810;28;20119;-75
2021/12/21 02:03:29;;;;;;;5.50;1.23;;;31.10;87.30;;;;;;5096811;28;20111;-69
2021/12/21 02:05:57;;;;;;;3.85;1.05;;;31.20;85.60;;;;;;5096729;28;20028;-71
2021/12/21 02:08:24;;;;;;;3.80;1.02;;;31.20;88.20;;;;;;5096624;28;20079;-71
2021/12/21 02:10:51;;;;;;;3.25;1.25;;;31.40;86.00;;;;;;5078181;28;20028;-70
2021/12/21 02:13:19;;;;;;;5.60;1.80;;;31.40;85.40;;;;;;5096603;28;20028;-70
2021/12/21 02:15:46;;;;;;;4.72;1.25;;;31.20;84.60;;;;;;5096750;28;20385;-68
2021/12/21 02:21:26;;;;;;;4.63;0.90;;;30.70;84.70;;;;;;5023873;28;20509;-69
2021/12/21 02:23:58;;;;;;;7.32;1.08;;;30.90;84.90;;;;;;5096646;28;20042;-68
2021/12/21 02:29:17;;;;;;;2.97;1.02;;;30.60;82.00;;;;;;5096312;28;20107;-69
2021/12/21 02:31:49;;;;;;;5.53;0.85;;;30.60;85.00;;;;;;5096136;28;20052;-70
2021/12/21 02:34:17;;;;;;;3.47;1.10;;;30.70;83.30;;;;;;5096277;28;20048;-71
2021/12/21 02:36:47;;;;;;;2.30;0.90;;;30.40;84.10;;;;;;5095935;28;20026;-68
2021/12/21 02:39:16;;;;;;;4.00;0.52;;;30.40;83.50;;;;;;5095777;28;20408;-70
2021/12/21 02:41:44;;;;;;;3.80;0.85;;;30.50;84.10;;;;;;5095962;28;20046;-75
2021/12/21 02:44:12;;;;;;;3.35;1.10;;;30.70;84.40;;;;;;5096138;28;20023;-77
2021/12/21 02:46:41;;;;;;;6.63;1.38;;;30.90;82.90;;;;;;5096064;28;20107;-76
2021/12/21 02:49:12;;;;;;;1.90;0.95;;;30.90;83.20;;;;;;5095984;28;20024;-76
2021/12/21 02:51:42;;;;;;;1.95;1.08;;;31.00;82.60;;;;;;5095984;28;20024;-69
2021/12/21 02:54:11;;;;;;;2.95;0.82;;;31.00;81.90;;;;;;5095641;28;20476;-72
2021/12/21 02:56:39;;;;;;;3.78;0.93;;;30.90;82.20;;;;;;5095592;28;20024;-70
2021/12/21 02:59:06;;;;;;;3.88;1.35;;;31.10;82.90;;;;;;5095740;28;20388;-73
2021/12/21 03:01:34;;;;;;;3.92;1.42;;;31.20;82.00;;;;;;5094649;28;20042;-70
2021/12/21 03:04:01;;;;;;;6.50;1.08;;;31.20;80.40;;;;;;5095402;28;20020;-68
2021/12/21 03:07:43;;;;;;;4.50;0.88;;;30.80;80.00;;;;;;5095437;28;20074;-70
2021/12/21 03:14:36;;;;;;;5.50;1.00;;;31.00;80.90;;;;;;5096013;28;20035;-69
2021/12/21 03:17:06;;;;;;;3.47;0.80;;;31.00;79.40;;;;;;5095082;28;20031;-73
2021/12/21 03:19:33;;;;;;;6.47;1.42;;;30.70;79.30;;;;;;5077018;28;20493;-68
2021/12/21 03:22:01;;;;;;;4.55;0.75;;;30.60;79.70;;;;;;5095208;28;20059;-70
2021/12/21 03:24:28;;;;;;;4.13;1.20;;;30.70;80.90;;;;;;5095171;28;20032;-71
2021/12/21 03:26:56;;;;;;;5.57;0.82;;;31.00;83.10;;;;;;5095320;28;20456;-70
2021/12/21 03:29:23;;;;;;;3.25;0.85;;;31.30;81.80;;;;;;5077165;28;20056;-68
2021/12/21 03:31:50;;;;;;;7.03;1.30;;;31.30;80.20;;;;;;5095014;28;20025;-73
2021/12/21 03:34:18;;;;;;;5.85;1.20;;;31.30;78.70;;;;;;5094993;28;20024;-76
2021/12/21 03:36:45;;;;;;;4.70;1.25;;;31.40;79.00;;;;;;5094900;28;20468;-75
2021/12/21 03:39:22;;;;;;;4.10;1.00;;;31.10;78.60;;;;;;5094643;28;20128;-69
2021/12/21 03:41:58;;;;;;;6.78;1.10;;;31.00;77.50;;;;;;5095040;28;20032;-68
2021/12/21 03:44:27;;;;;;;3.53;1.02;;;31.00;76.50;;;;;;5094811;28;20055;-69
2021/12/21 03:46:56;;;;;;;4.25;1.02;;;30.60;77.90;;;;;;5094862;28;20055;-68
2021/12/21 03:52:01;;;;;;;3.42;1.08;;;30.60;78.60;;;;;;5094681;28;20493;-72
2021/12/21 03:54:29;;;;;;;3.00;0.85;;;30.80;78.10;;;;;;5094497;28;20031;-69
2021/12/21 03:56:56;;;;;;;4.57;1.30;;;30.80;76.80;;;;;;5094322;28;20116;-72
2021/12/21 03:59:24;;;;;;;4.90;1.08;;;30.60;76.70;;;;;;5094536;28;20030;-74
2021/12/21 04:01:51;;;;;;;4.03;1.27;;;30.60;78.00;;;;;;5094447;28;20149;-75
2021/12/21 04:04:20;;;;;;;4.00;1.20;;;30.90;77.20;;;;;;5094602;28;20047;-68
2021/12/21 04:06:48;;;;;;;3.00;0.90;;;30.90;76.20;;;;;;5094567;28;20051;-69
2021/12/21 04:09:16;;;;;;;4.35;0.95;;;30.60;75.90;;;;;;5094524;28;20020;-70
2021/12/21 04:11:43;;;;;;;2.97;1.20;;;30.60;78.60;;;;;;5076035;28;20043;-72
2021/12/21 04:14:11;;;;;;;9.10;1.13;;;30.90;78.40;;;;;;5094196;28;20028;-76
2021/12/21 04:16:39;;;;;;;3.28;1.17;;;31.00;77.20;;;;;;5094193;28;20073;-70
2021/12/21 04:19:06;;;;;;;8.05;0.98;;;31.10;77.60;;;;;;5075963;28;20051;-75
2021/12/21 04:21:34;;;;;;;8.88;1.27;;;31.30;78.80;;;;;;5093791;28;20092;-68
2021/12/21 04:24:01;;;;;;;3.67;1.00;;;30.90;76.80;;;;;;5094016;28;20017;-75
2021/12/21 04:26:29;;;;;;;3.47;0.80;;;30.40;76.70;;;;;;5094148;28;20047;-69
2021/12/21 04:28:56;;;;;;;6.22;1.02;;;30.20;77.40;;;;;;5094172;28;20122;-69
2021/12/21 04:31:24;;;;;;;2.75;0.93;;;30.50;80.60;;;;;;5093848;28;20027;-77
2021/12/21 04:33:52;;;;;;;3.67;1.05;;;30.80;79.00;;;;;;5093768;28;20020;-69
2021/12/21 04:36:19;;;;;;;5.22;1.50;;;30.90;79.30;;;;;;5093809;28;20028;-69
2021/12/21 04:38:49;;;;;;;4.30;1.20;;;31.00;77.80;;;;;;5093411;28;20396;-69
2021/12/21 04:41:23;;;;;;;2.53;0.80;;;31.00;78.50;;;;;;5093645;28;20077;-76
2021/12/21 04:43:56;;;;;;;2.88;1.10;;;31.00;77.30;;;;;;5093728;28;20069;-68
2021/12/21 04:46:24;;;;;;;3.90;0.90;;;30.90;77.50;;;;;;5093761;28;20047;-68
2021/12/21 04:48:53;;;;;;;14.05;1.30;;;30.70;77.80;;;;;;5093589;28;20023;-69
2021/12/21 04:51:22;;;;;;;8.80;0.93;;;30.60;79.20;;;;;;5093581;28;20034;-69
2021/12/21 04:53:49;;;;;;;2.58;1.10;;;30.70;79.00;;;;;;5093447;28;20511;-72
2021/12/21 04:56:17;;;;;;;5.15;1.05;;;30.70;78.40;;;;;;5093645;28;20476;-69
2021/12/21 04:58:44;;;;;;;2.92;1.42;;;30.70;79.40;;;;;;5093524;28;20061;-75
2021/12/21 05:01:12;;;;;;;11.02;1.98;;;30.80;79.50;;;;;;5093336;28;20043;-70
2021/12/21 05:03:39;;;;;;;2.75;0.90;;;30.60;79.70;;;;;;5093384;28;20055;-69
2021/12/21 05:06:06;;;;;;;6.45;1.48;;;30.70;80.50;;;;;;5093500;28;20058;-70
2021/12/21 05:08:37;;;;;;;5.95;1.00;;;30.80;79.70;;;;;;5093384;28;20024;-75
2021/12/21 05:11:06;;;;;;;4.03;1.20;;;30.80;80.60;;;;;;5093536;28;20027;-74
2021/12/21 05:13:37;;;;;;;5.45;1.00;;;30.90;79.30;;;;;;5093341;28;20024;-74
2021/12/21 05:16:05;;;;;;;4.60;0.93;;;30.70;80.70;;;;;;5093423;28;20055;-72
2021/12/21 05:18:34;;;;;;;3.10;0.95;;;30.50;82.10;;;;;;5093498;28;20069;-74
2021/12/21 05:21:01;;;;;;;6.68;1.15;;;30.30;80.40;;;;;;5093201;28;20043;-68
2021/12/21 05:23:29;;;;;;;9.05;1.50;;;29.80;80.50;;;;;;5093402;28;20077;-69
2021/12/21 05:25:56;;;;;;;6.93;1.33;;;29.80;82.40;;;;;;5096723;28;20035;-74
2021/12/21 05:28:24;;;;;;;5.75;1.15;;;30.10;81.10;;;;;;5097452;28;20031;-68
2021/12/21 05:30:51;;;;;;;3.22;1.15;;;30.10;82.00;;;;;;5097343;28;20028;-75
2021/12/21 05:33:18;;;;;;;5.65;1.35;;;30.20;82.60;;;;;;5079310;28;20031;-70
2021/12/21 05:35:47;;;;;;;3.88;1.10;;;30.20;81.70;;;;;;5097350;28;20099;-69
2021/12/21 05:38:23;;;;;;;8.20;1.35;;;30.50;80.80;;;;;;5096917;28;20127;-67
2021/12/21 05:40:51;;;;;;;3.33;0.93;;;30.30;79.60;;;;;;5096994;28;20048;-75
2021/12/21 05:43:18;;;;;;;2.60;1.05;;;30.10;79.90;;;;;;5097539;28;20027;-68
2021/12/21 05:45:45;;;;;;;4.70;1.25;;;30.10;78.10;;;;;;5097051;28;20028;-70
2021/12/21 05:48:13;;;;;;;5.85;1.17;;;29.90;80.20;;;;;;5097175;28;20024;-73
2021/12/21 05:50:40;;;;;;;6.72;1.63;;;30.10;80.00;;;;;;5097166;28;20476;-68
2021/12/21 05:53:07;;;;;;;5.95;0.95;;;29.80;79.70;;;;;;5097020;28;20028;-70
2021/12/21 05:55:35;;;;;;;4.43;1.20;;;29.60;82.50;;;;;;5078821;28;20111;-68
2021/12/21 05:58:03;;;;;;;2.78;0.98;;;29.70;81.80;;;;;;5096954;28;20429;-69
2021/12/21 06:00:33;;;;;;;3.90;1.20;;;29.40;81.30;;;;;;5096762;28;20024;-74
2021/12/21 06:03:01;;;;;;;8.27;1.10;;;29.40;82.50;;;;;;5096722;28;20027;-74
2021/12/21 06:05:29;;;;;;;5.88;1.17;;;29.50;84.20;;;;;;5096795;28;20079;-70
2021/12/21 06:07:56;;;;;;;6.88;1.25;;;29.60;85.50;;;;;;5096632;28;20034;-69
2021/12/21 06:10:30;;;;;;;2.78;1.30;;;29.70;84.80;;;;;;5096607;28;20026;-69
2021/12/21 06:13:40;;;;;;;5.45;1.60;;;29.70;86.40;;;;;;5096521;28;20028;-72
2021/12/21 06:26:31;;;;;;;6.30;1.70;;;29.50;90.10;;;;;;5096450;28;19994;-72
2021/12/21 06:28:58;;;;;;;7.22;1.70;;;29.50;90.60;;;;;;5096374;28;20035;-70
2021/12/21 06:31:26;;;;;;;8.10;1.77;;;29.60;90.70;;;;;;5096182;28;20020;-71
2021/12/21 06:33:53;;;;;;;7.18;1.63;;;29.40;90.60;;;;;;5096148;28;20025;-70
2021/12/21 06:36:21;;;;;;;6.45;1.63;;;29.20;91.60;;;;;;5094845;28;20107;-70
2021/12/21 06:38:48;;;;;;;7.22;1.98;;;29.30;91.60;;;;;;5095718;28;20048;-70
2021/12/21 06:41:16;;;;;;;13.07;2.20;;;29.70;91.30;;;;;;5096024;28;20056;-70
2021/12/21 06:43:44;;;;;;;6.63;2.17;;;29.90;91.30;;;;;;5096164;28;20028;-70
2021/12/21 06:51:33;;;;;;;10.05;1.63;;;30.20;91.00;;;;;;5096137;28;20031;-69
2021/12/21 06:54:00;;;;;;;9.68;1.80;;;30.20;90.70;;;;;;5095812;28;20024;-74
2021/12/21 06:56:28;;;;;;;5.13;1.50;;;30.00;91.40;;;;;;5095671;28;20419;-70
2021/12/21 06:58:56;;;;;;;5.65;1.80;;;29.80;91.20;;;;;;5095436;28;20023;-70
2021/12/21 07:01:28;;;;;;;11.02;1.65;;;29.40;92.50;;;;;;5095482;28;20500;-70
2021/12/21 07:03:58;;;;;;;4.32;1.52;;;29.30;92.80;;;;;;5096054;28;20457;-74
2021/12/21 07:06:26;;;;;;;6.82;1.33;;;29.10;92.50;;;;;;5095444;28;20024;-70
2021/12/21 07:09:05;;;;;;;4.35;1.58;;;28.90;92.90;;;;;;5095529;28;20020;-69
2021/12/21 07:19:32;;;;;;;10.10;1.73;;;28.60;94.80;;;;;;5096101;28;20445;-71
2021/12/21 07:21:59;;;;;;;9.38;1.83;;;28.50;94.30;;;;;;5095175;28;20036;-72
2021/12/21 07:24:27;;;;;;;4.03;1.40;;;28.30;95.00;;;;;;5095351;28;20012;-70
2021/12/21 07:26:54;;;;;;;6.18;2.05;;;28.20;95.00;;;;;;5095473;28;20108;-70
2021/12/21 07:29:22;;;;;;;9.63;2.28;;;28.00;94.90;;;;;;5076999;28;20024;-72
2021/12/21 07:31:50;;;;;;;5.82;1.40;;;28.00;95.50;;;;;;5095030;28;20032;-70
2021/12/21 07:34:17;;;;;;;9.70;1.60;;;27.80;95.70;;;;;;5095079;28;20024;-69
2021/12/21 07:36:45;;;;;;;9.57;1.85;;;28.30;96.40;;;;;;5094992;28;20026;-70
2021/12/21 07:39:14;;;;;;;8.80;1.80;;;28.80;94.60;;;;;;5094733;28;20044;-72
2021/12/21 07:41:42;;;;;;;7.32;1.30;;;28.80;95.20;;;;;;5094701;28;20028;-74
2021/12/21 07:44:10;;;;;;;5.25;1.85;;;29.30;94.50;;;;;;5094884;28;20020;-70
2021/12/21 07:46:40;;;;;;;7.05;1.63;;;29.70;93.50;;;;;;5094753;28;20028;-72
2021/12/21 07:49:08;;;;;;;3.78;1.48;;;29.80;92.90;;;;;;5094437;28;20473;-70
2021/12/21 07:51:36;;;;;;;11.35;2.28;;;29.80;93.10;;;;;;5094412;28;20121;-70
2021/12/21 07:54:03;;;;;;;5.43;1.38;;;29.20;94.00;;;;;;5094637;28;20089;-71
2021/12/21 07:56:31;;;;;;;5.93;1.88;;;28.80;94.90;;;;;;5094703;28;20028;-70
2021/12/21 07:58:58;;;;;;;12.75;2.03;;;28.10;95.90;;;;;;5094769;28;20020;-71
2021/12/21 08:01:26;;;;;;;9.07;1.90;;;27.90;97.00;;;;;;5094487;28;20043;-70
2021/12/21 08:03:54;;;;;;;5.90;1.45;;;27.60;97.50;;;;;;5094594;28;20089;-69
2021/12/21 08:06:22;;;;;;;5.03;1.98;;;27.30;98.50;;;;;;5094365;28;20066;-72
2021/12/21 08:08:50;;;;;;;8.35;2.20;;;27.20;99.30;;;;;;5094474;28;20048;-73
2021/12/21 08:14:03;;;;;;;;;;;26.80;99.90;;;;;;5094949;28;20038;-70
2021/12/21 08:16:31;;;;;;;7.30;1.90;;;26.60;99.90;;;;;;5094347;28;19907;-73
2021/12/21 08:18:59;;;;;;;6.07;1.70;;;26.50;99.90;;;;;;5094019;28;20476;-75
2021/12/21 08:21:27;;;;;;;7.60;2.22;;;26.20;99.90;;;;;;5093919;28;20523;-72
2021/12/21 08:23:54;;;;;;;4.22;1.75;;;26.10;99.90;;;;;;5094086;28;20475;-70
2021/12/21 08:26:22;;;;;;;10.23;1.90;;;25.90;99.90;;;;;;5094071;28;20031;-70
2021/12/21 08:28:49;;;;;;;8.63;2.40;;;25.80;99.90;;;;;;5094103;28;20035;-70
2021/12/21 08:31:16;;;;;;;6.60;1.80;;;25.70;99.90;;;;;;5094130;28;20024;-72
2021/12/21 08:33:44;;;;;;;7.07;2.40;;;25.60;99.90;;;;;;5093548;28;20385;-74
2021/12/21 08:36:12;;;;;;;9.57;1.92;;;25.50;99.90;;;;;;5093909;28;20023;-73
2021/12/21 08:38:42;;;;;;;6.43;1.77;;;25.40;99.90;;;;;;5093493;28;20397;-70
2021/12/21 08:41:10;;;;;;;5.18;2.38;;;25.30;99.90;;;;;;5093670;28;20024;-73
2021/12/21 08:43:40;;;;;;;12.70;2.28;;;25.20;99.90;;;;;;5093848;28;20527;-75
2021/12/21 08:46:08;;;;;;;8.57;2.13;;;25.20;99.90;;;;;;5093567;28;20480;-70
2021/12/21 08:48:36;;;;;;;4.82;1.80;;;25.10;99.90;;;;;;5094069;28;20060;-71
2021/12/21 08:51:04;;;;;;;8.27;2.38;;;25.00;99.90;;;;;;5093373;28;20028;-71
2021/12/21 08:53:32;;;;;;;9.23;2.20;;;24.90;99.90;;;;;;5094047;28;20093;-71
2021/12/21 08:56:00;;;;;;;3.75;1.35;;;24.90;99.90;;;;;;5093395;28;20051;-71
2021/12/21 08:58:28;;;;;;;9.30;1.73;;;24.80;99.90;;;;;;5093152;28;20538;-70
2021/12/21 09:00:56;;;;;;;7.28;1.77;;;24.80;99.90;;;;;;5093251;28;20358;-69
2021/12/21 09:03:23;;;;;;;5.75;1.55;;;24.70;99.90;;;;;;5093785;28;20031;-71
2021/12/21 09:05:52;;;;;;;8.55;1.98;;;24.80;99.90;;;;;;5081249;28;20469;-73
2021/12/21 09:08:20;;;;;;;6.97;1.95;;;24.80;99.90;;;;;;5077164;28;20485;-72
2021/12/21 09:10:48;;;;;;;12.52;2.58;;;24.80;99.90;;;;;;5093087;28;20520;-72
2021/12/21 09:13:15;;;;;;;11.98;2.95;;;24.80;99.90;;;;;;5093182;28;20024;-71
2021/12/21 09:15:43;;;;;;;7.28;2.88;;;24.70;99.90;;;;;;5092985;28;20024;-72
2021/12/21 09:18:11;;;;;;;7.82;2.35;;;24.70;99.90;;;;;;5092865;28;20035;-73
2021/12/21 09:20:39;;;;;;;8.48;2.45;;;24.70;99.90;;;;;;5092967;28;20024;-71
2021/12/21 09:23:06;;;;;;;9.25;2.80;;;24.70;99.90;;;;;;5093093;28;20034;-73
2021/12/21 09:25:34;;;;;;;8.05;3.15;;;24.80;99.90;;;;;;5074821;28;20545;-71
2021/12/21 09:28:01;;;;;;;7.22;2.28;;;24.70;99.90;;;;;;5092895;28;20060;-71
2021/12/21 09:30:29;;;;;;;6.68;2.22;;;24.70;99.90;;;;;;5092963;28;20024;-71
2021/12/21 09:32:58;;;;;;;8.75;2.80;;;24.70;99.90;;;;;;5092974;28;20016;-72
2021/12/21 09:35:26;;;;;;;9.10;2.60;;;24.70;99.90;;;;;;5092825;28;20042;-71
2021/12/21 09:37:55;;;;;;;11.57;3.38;;;24.70;99.90;;;;;;5085337;28;20049;-71
2021/12/21 09:40:30;;;;;;;8.82;2.28;;;24.70;99.90;;;;;;5069410;28;20029;-72
2021/12/21 09:42:59;;;;;;;11.15;2.95;;;24.70;99.90;;;;;;5071858;28;20067;-72
2021/12/21 09:45:26;;;;;;;10.02;2.78;;;24.60;99.90;;;;;;5071391;28;20428;-71
2021/12/21 09:47:54;;;;;;;6.07;2.80;;;24.60;99.90;;;;;;5071619;28;20025;-71
2021/12/21 09:50:25;;;;;;;6.20;2.53;;;24.60;99.90;;;;;;5071154;28;20092;-71
2021/12/21 09:52:56;;;;;;;7.72;2.42;;;24.60;99.90;;;;;;5076150;28;20048;-71
2021/12/21 09:55:24;;;;;;;10.10;3.00;;;24.50;99.90;;;;;;5071431;28;20016;-71
2021/12/21 09:57:53;;;;;;;11.13;3.53;;;24.40;99.90;;;;;;5071568;28;20377;-72
2021/12/21 10:00:24;;;;;;;9.05;2.67;;;24.40;99.90;;;;;;5071395;28;20412;-72
2021/12/21 10:02:52;;;;;;;8.93;2.78;;;24.40;99.90;;;;;;5071688;28;20021;-72
2021/12/21 10:05:22;;;;;;;11.15;3.08;;;24.40;99.90;;;;;;5070356;28;20028;-71
2021/12/21 10:08:01;;;;;;;8.48;2.55;;;24.50;99.90;;;;;;5071866;28;20035;-72
2021/12/21 10:10:36;;;;;;;13.52;2.83;;;24.50;99.90;;;;;;5072310;28;20032;-72
2021/12/21 10:13:14;;;;;;;9.23;2.47;;;24.50;99.90;;;;;;5076021;28;20016;-72
2021/12/21 10:15:45;;;;;;;8.75;2.83;;;24.50;99.90;;;;;;5074794;28;20031;-71
2021/12/21 10:18:14;;;;;;;9.75;2.53;;;24.50;99.90;;;;;;5074186;28;20063;-72
2021/12/21 10:20:44;;;;;;;9.98;3.17;;;24.50;99.90;;;;;;5074015;28;20028;-71
2021/12/21 10:23:23;;;;;;;8.15;3.13;;;24.50;99.90;;;;;;5074462;28;20024;-72
2021/12/21 10:25:57;;;;;;;6.80;2.47;;;24.60;99.90;;;;;;5073982;28;20028;-71
2021/12/21 10:28:33;;;;;;;5.80;2.28;;;24.50;99.90;;;;;;5074263;28;20142;-71
2021/12/21 10:31:08;;;;;;;11.05;2.75;;;24.50;99.90;;;;;;5073783;28;20027;-71
2021/12/21 10:33:36;;;;;;;10.50;2.70;;;24.40;99.90;;;;;;5075550;28;20021;-71
2021/12/21 10:36:07;;;;;;;8.18;2.97;;;24.50;99.90;;;;;;5074027;28;20033;-71
2021/12/21 10:38:57;;;;;;;7.97;2.22;;;24.40;99.90;;;;;;5074039;28;20067;-71
2021/12/21 10:41:40;;;;;;;8.93;2.55;;;24.40;99.90;;;;;;5074415;28;20104;-71
2021/12/21 10:44:15;;;;;;;8.55;2.67;;;24.40;99.90;;;;;;5074009;28;20034;-72
2021/12/21 10:46:49;;;;;;;8.63;2.88;;;24.50;99.90;;;;;;5074504;28;20401;-72
2021/12/21 10:49:22;;;;;;;10.13;2.78;;;24.40;99.90;;;;;;5074881;28;20029;-72
2021/12/21 10:52:14;;;;;;;9.05;2.80;;;24.50;99.90;;;;;;5074471;28;20016;-71
2021/12/21 10:54:42;;;;;;;7.82;3.10;;;24.50;99.90;;;;;;5074409;28;20025;-71
2021/12/21 10:57:16;;;;;;;16.40;3.13;;;24.50;99.90;;;;;;5074629;28;20025;-72
2021/12/21 10:59:46;;;;;;;14.48;3.15;;;24.50;99.90;;;;;;5073788;28;20085;-73
2021/12/21 11:02:19;;;;;;;8.63;2.22;;;24.50;99.90;;;;;;5057580;28;20345;-73
2021/12/21 11:04:51;;;;;;;8.25;2.35;;;24.40;99.90;;;;;;5073654;28;20465;-70
2021/12/21 11:07:32;;;;;;;8.00;2.95;;;24.40;99.90;;;;;;5074278;28;20058;-71
2021/12/21 11:10:15;;;;;;;10.00;3.03;;;24.30;99.90;;;;;;5074456;28;20009;-71
2021/12/21 11:12:51;;;;;;;11.00;3.22;;;24.20;99.90;;;;;;5074423;28;20020;-71
2021/12/21 11:15:29;;;;;;;13.15;3.53;;;24.20;99.90;;;;;;5074180;28;20035;-71
2021/12/21 11:18:13;;;;;;;9.35;3.13;;;24.10;99.90;;;;;;5074071;28;20062;-71
2021/12/21 11:20:43;;;;;;;9.70;2.95;;;24.10;99.90;;;;;;5073951;28;20028;-73
2021/12/21 11:23:16;;;;;;;8.43;3.17;;;24.10;99.90;;;;;;5073440;28;20024;-71
2021/12/21 11:25:46;;;;;;;9.75;3.03;;;24.10;99.90;;;;;;5074210;28;20073;-72
2021/12/21 11:28:21;;;;;;;10.45;2.97;;;24.00;99.90;;;;;;5073490;28;20028;-71
2021/12/21 11:30:49;;;;;;;10.98;3.08;;;24.00;99.90;;;;;;5073385;28;20099;-71
2021/12/21 11:33:18;;;;;;;17.45;3.55;;;23.90;99.90;;;;;;5074001;28;20078;-71
2021/12/21 11:38:32;;;;;;;10.43;4.38;;;23.80;99.90;;;;;;5074917;28;20507;-71
2021/12/21 11:41:00;;;;;;;11.30;3.60;;;23.70;99.90;;;;;;5078679;28;20028;-71
2021/12/21 11:43:49;;;;;;;9.52;3.80;;;23.70;99.90;;;;;;5072101;28;20443;-71
2021/12/21 11:46:25;;;;;;;7.97;3.40;;;23.70;99.90;;;;;;5072761;28;20128;-71
2021/12/21 11:49:15;;;;;;;10.77;2.97;;;23.60;99.90;;;;;;5072603;28;20493;-72
2021/12/21 11:51:43;;;;;;;10.60;3.33;;;23.50;99.90;;;;;;5072630;28;20081;-71
2021/12/21 11:54:22;;;;;;;8.07;3.08;;;23.40;99.90;;;;;;5072581;28;20107;-71
2021/12/21 11:56:51;;;;;;;10.45;2.65;;;23.30;99.90;;;;;;5071811;28;20036;-71
2021/12/21 11:59:23;;;;;;;17.35;3.40;;;23.30;99.90;;;;;;5078000;28;20040;-71
2021/12/21 12:01:50;;;;;;;8.23;2.95;;;23.30;99.90;;;;;;5072284;28;20035;-71
2021/12/21 12:04:18;;;;;;;7.13;3.20;;;23.20;99.90;;;;;;5072343;28;20020;-72
2021/12/21 12:06:49;;;;;;;10.23;3.08;;;23.20;99.90;;;;;;5072225;28;20025;-72
2021/12/21 12:09:31;;;;;;;6.05;2.17;;;23.20;99.90;;;;;;5072177;28;20028;-71
2021/12/21 12:12:28;;;;;;;6.65;2.47;;;23.10;99.90;;;;;;5072274;28;20020;-71
2021/12/21 12:15:08;;;;;;;10.82;2.10;;;23.00;99.90;;;;;;5071360;28;20029;-72
2021/12/21 12:17:50;;;;;;;13.77;3.05;;;22.90;99.90;;;;;;5072081;28;20381;-72
2021/12/21 12:20:26;;;;;;;9.35;2.28;;;22.80;99.90;;;;;;5071672;28;20063;-72
2021/12/21 12:23:05;;;;;;;17.23;3.17;;;22.80;99.90;;;;;;5071949;28;20085;-72
2021/12/21 12:25:35;;;;;;;15.77;3.03;;;22.70;99.90;;;;;;5072040;28;20666;-72
2021/12/21 12:28:02;;;;;;;9.02;3.15;;;22.70;99.90;;;;;;5071868;28;20078;-71
2021/12/21 12:30:30;;;;;;;12.05;2.67;;;22.70;99.90;;;;;;5071592;28;20037;-71
2021/12/21 12:33:01;;;;;;;9.82;2.70;;;22.70;99.90;;;;;;5071835;28;20100;-72
2021/12/21 12:35:35;;;;;;;6.72;2.15;;;22.70;99.90;;;;;;5070823;28;20052;-71
2021/12/21 12:38:16;;;;;;;12.93;3.00;;;22.60;99.90;;;;;;5071625;28;20036;-71
2021/12/21 12:40:47;;;;;;;18.50;3.05;;;22.60;99.90;;;;;;5071701;28;20404;-71
2021/12/21 12:43:27;;;;;;;13.88;2.17;;;22.50;99.90;;;;;;5071723;28;20522;-72
2021/12/21 12:46:04;;;;;;;11.98;2.47;;;22.40;99.90;;;;;;5071817;28;20055;-71
2021/12/21 12:48:43;;;;;;;11.23;2.28;;;22.40;99.90;;;;;;5071788;28;20017;-72
2021/12/21 12:51:25;;;;;;;13.77;3.17;;;22.40;99.90;;;;;;5053114;28;20046;-71
2021/12/21 12:53:53;;;;;;;10.82;2.65;;;22.40;99.90;;;;;;5089550;28;20028;-71
2021/12/21 12:56:20;;;;;;;9.32;2.35;;;22.30;99.90;;;;;;5091849;28;20089;-71
2021/12/21 12:58:53;;;;;;;8.95;3.00;;;22.20;99.90;;;;;;5073510;28;20457;-71
2021/12/21 13:01:24;;;;;;;11.52;2.58;;;22.20;99.90;;;;;;5089683;28;20383;-73
2021/12/21 13:04:00;;;;;;;14.10;2.58;;;22.20;99.90;;;;;;5070348;28;20376;-71
2021/12/21 13:06:33;;;;;;;19.65;2.63;;;22.10;99.90;;;;;;5090037;28;20024;-71
2021/12/21 13:09:04;;;;;;;15.55;3.22;;;22.10;99.90;;;;;;5091612;28;20077;-70
2021/12/21 13:11:33;;;;;;;8.93;2.42;;;22.10;99.90;;;;;;5093030;28;20028;-70
2021/12/21 13:14:01;;;;;;;12.30;3.47;;;22.10;99.90;;;;;;5092994;28;20460;-70
2021/12/21 13:16:32;;;;;;;9.65;2.45;;;22.10;99.90;;;;;;5092819;28;20473;-70
2021/12/21 13:19:04;;;;;;;10.65;2.25;;;22.10;99.90;;;;;;5093401;28;20016;-70
2021/12/21 13:21:36;;;;;;;10.20;2.33;;;22.00;99.90;;;;;;5093369;28;20036;-70
2021/12/21 13:24:09;;;;;;;6.63;2.45;;;22.00;99.90;;;;;;5093275;28;20073;-69
2021/12/21 13:26:51;;;;;;;10.35;2.83;;;22.00;99.90;;;;;;5093826;28;20066;-70
2021/12/21 13:29:21;;;;;;;18.63;3.70;;;22.00;99.90;;;;;;5093796;28;20458;-69
2021/12/21 13:31:54;;;;;;;18.63;4.00;;;22.00;99.90;;;;;;5093229;28;20071;-70
2021/12/21 13:34:23;;;;;;;12.27;2.63;;;22.00;99.90;;;;;;5093323;28;20032;-69
2021/12/21 13:36:54;;;;;;;13.70;2.90;;;21.90;99.90;;;;;;5093256;28;20043;-70
2021/12/21 13:39:28;;;;;;;11.40;2.97;;;21.90;99.90;;;;;;5093085;28;20040;-70
2021/12/21 13:42:05;;;;;;;13.27;3.10;;;21.90;99.90;;;;;;5093006;28;20043;-70
2021/12/21 13:44:39;;;;;;;18.27;3.50;;;21.80;99.90;;;;;;5093078;28;20507;-69
2021/12/21 13:47:17;;;;;;;9.73;2.85;;;21.80;99.90;;;;;;5096812;28;20031;-70
2021/12/21 13:50:11;;;;;;;10.77;2.30;;;21.80;99.90;;;;;;5097092;28;20013;-70
2021/12/21 13:52:56;;;;;;;12.13;2.42;;;21.80;99.90;;;;;;5094540;28;20036;-69
2021/12/21 13:55:31;;;;;;;13.57;2.78;;;21.80;99.90;;;;;;5097039;28;20090;-70
2021/12/21 13:58:05;;;;;;;15.70;3.60;;;21.80;99.90;;;;;;5096814;28;20074;-69
2021/12/21 14:00:37;;;;;;;12.38;2.50;;;21.80;99.90;;;;;;5096665;28;20093;-70
2021/12/21 14:05:48;;;;;;;17.45;3.53;;;21.70;99.90;;;;;;5080018;28;20104;-70
2021/12/21 14:08:18;;;;;;;13.40;2.38;;;21.70;99.90;;;;;;5096831;28;20024;-70
2021/12/21 14:10:48;;;;;;;17.77;3.17;;;21.70;99.90;;;;;;5078304;28;20025;-70
2021/12/21 14:13:17;;;;;;;23.00;3.33;;;21.70;99.90;;;;;;5096820;28;20016;-70